Dyer Brook, Maine
Current Conditions -  °F | °C
As of 8:53 PM on Saturday 22 Nov 2014 (Local Time) from KHUL Reporting Station
Light Snow Light Snow  
Wind Chill: 22°   Ceiling: 5000
Heat Index: 28°   Visibility: 8mi
Dew Point: 16°   Wind: 6mph
Humidity: 61%   Direction: 210°SSW
Pressure: 29.83"   Gusts: NA
Location:  46.0051°N, 68.2487°W
Report Text: KHUL 230153Z AUTO 21005KT 8SM -SN SCT036 OVC050 M02/M09 A2983 RMK AO2 SNB0055E07B51 SLP112 P0000 T10221089
Loading
Personal Weather Stations






























Interactive Weather Map New forecast layout! Learn more

10-Day Weather Forecast

Advertisements
Track Severe Weather on mobile